ซูริก, ประเทศสวิตเซอร์แลนด์

03:15 AM CET วัน พฤศจิกายน 24, 2014 (GMT +0100)
Zurich-Witikon | Change Station
CLOSE
Current Station
Personal Weather Stations
Location: Zürich, ZüRICH
Elevation: 1998 ft
Nearby Weather Stations

Elev 1998 ft 47.36 °N, 8.60 °E | Updated 13 seconds ago

Mostly Cloudy
มีเมฆคลุมเป็นส่วนใหญ่
41.5 ฟาเรนไฮน์
Feels Like 42 ฟาเรนไฮน์
N
0.4
ลม ความผันแปร ลม from ทางทิศตะวันตกและทิศตะวันตกเฉียงใต้
Gusts 3.0 mph

วันนี้
High -- | Low -- ฟาเรนไฮน์
--% Chance of Precip.
Yesterday
High -- | Low -- ฟาเรนไฮน์
Precip. -- นิ้ว
7:42 AM 4:41 PM
เดือนเสี้ยว, 3% visible
ความดัน 30.18 นิ้ว
ทัศนวิสัย -9999.0 ไมล์
เมฆ มีเมฆคลุมเป็นบางส่วน 200 ft
มีเมฆคลุมเป็นส่วนใหญ่ 11000 ft
ลมหนาว 42 ฟาเรนไฮน์
อุณหภูมิที่อากาศอาจจับตัวเป็นหยาดน้ำค้าง 42 ฟาเรนไฮน์
ความชื้น 100%
Rainfall 0.00 นิ้ว
Snow Depth Not available.
UV 0.0 out of 12
Pollen Not available.
Air Quality Not available.
Flu Activity Not available.
METAR LSMD 240150Z AUTO VRB02KT 3800NDV SCT002 BKN110 05/05 Q1022 RMK GRN

More Conditions Fewer Conditions

ความดัน 30.18 นิ้ว
ทัศนวิสัย -9999.0 ไมล์
เมฆ มีเมฆคลุมเป็นบางส่วน 200 ft
มีเมฆคลุมเป็นส่วนใหญ่ 11000 ft
ลมหนาว 42 ฟาเรนไฮน์
อุณหภูมิที่อากาศอาจจับตัวเป็นหยาดน้ำค้าง 42 ฟาเรนไฮน์
ความชื้น 100%
Rainfall 0.00 นิ้ว
Snow Depth Not available.
UV 0.0 out of 12
Pollen Not available.
Air Quality Not available.
Flu Activity Not available.
METAR LSMD 240150Z AUTO VRB02KT 3800NDV SCT002 BKN110 05/05 Q1022 RMK GRN

More Conditions Fewer Conditions

10-Day Weather Forecast

Almanac

ดาราศาสตร์

Nov. 24, 2014 Rise Set
Actual Time
Civil Twilight
Nautical Twilight
Astronomical Twilight
Moon
Length Of Visible Light
ความยาวของวัน
Tomorrow will be .
, % of the Moon is Illuminated

Today's Extremes

Country Highs Country Lows

Community

WunderPhotos

Upload Photos

1,773,254 photos uploaded!

WunderBlogs® & News

Nearby

Air Quality

  Air Quality AQ Index Pollutant
Not available.

Snow Depth

Station Depth Elevation

Earthquake Activity

City Distance Mag. Time & Date
Minimum magnitude displayed is 2.5.

Coastal Water Temperatures

สถานที่ อุณหภูมิ

Nearby Weather Stations